Flight Track Log - Related Links

Times and Time Zones

All times are in EDT time to prevent confusion due to time zone crossing. See the SKW5205 flight status page for this flight to view local times or setup timezone preferences in your user account.

Time Position Orientation Groundspeed Altitude Reporting Facility
EDT Latitude Longitude Course Direction KTS MPH feet Rate Location/Type
Thu 02:34:24 PM 40.6831 -89.6047 44° Northeast 269 310 4,400  Level Chicago Center
Thu 02:35:26 PM 40.7225 -89.6822 304° West 264 304 7,200 2,468 Climbing Chicago Center
Thu 02:36:28 PM 40.7233 -89.7786 271° West 264 304 9,500 2,661 Climbing Chicago Center
Thu 02:37:30 PM 40.7242 -89.8928 271° West 272 313 12,700 2,371 Climbing Chicago Center
Thu 02:38:32 PM 40.7236 -89.9883 270° West 262 302 14,400 1,500 Climbing Chicago Center
Thu 02:39:34 PM 40.7239 -90.0914 270° West 290 334 15,800 1,440 Climbing Chicago Center
Thu 02:40:37 PM 40.7242 -90.2278 270° West 304 350 17,400 1,296 Climbing Chicago Center
Thu 02:41:39 PM 40.7242 -90.3297 270° West 319 367 18,500 1,452 Climbing Chicago Center
Thu 02:42:41 PM 40.7242 -90.4703 270° West 317 365 20,400 1,694 Climbing Chicago Center
Thu 02:43:43 PM 40.7247 -90.5836 270° West 311 358 22,000 1,403 Climbing Chicago Center
Thu 02:44:45 PM 40.7225 -90.6967 269° West 310 357 23,300 871 Climbing Chicago Center
Thu 02:45:47 PM 40.7217 -90.8114 269° West 310 357 23,800 484 Climbing Chicago Center
Thu 02:46:49 PM 40.7217 -90.9356 270° West 336 387 24,300 484 Climbing Chicago Center
Thu 02:47:51 PM 40.7331 -91.0642 277° West 351 404 24,800 528 Climbing Chicago Center
Thu 02:48:54 PM 40.7458 -91.2244 276° West 365 420 25,400 528 Climbing Chicago Center
Thu 02:49:56 PM 40.7558 -91.3483 276° West 373 429 25,900 484 Climbing Chicago Center
Thu 02:50:58 PM 40.7658 -91.4867 275° West 376 433 26,400 532 Climbing Chicago Center
Thu 02:52:00 PM 40.7769 -91.6542 275° West 384 442 27,000 532 Climbing Chicago Center
Thu 02:53:02 PM 40.7878 -91.7936 276° West 384 442 27,500 484 Climbing Chicago Center
Thu 02:54:04 PM 40.7972 -91.9342 275° West 386 444 28,000 484 Climbing Chicago Center
Thu 02:55:06 PM 40.8072 -92.0756 275° West 387 445 28,500 532 Climbing Chicago Center
Thu 02:56:08 PM 40.8194 -92.2436 276° West 388 447 29,100 528 Climbing Chicago Center
Thu 02:57:11 PM 40.8286 -92.3844 275° West 388 447 29,600 480 Climbing Chicago Center
Thu 02:58:13 PM 40.8375 -92.5267 275° West 390 449 30,100 484 Climbing Chicago Center
Thu 02:59:15 PM 40.8467 -92.6686 275° West 391 450 30,600 532 Climbing Chicago Center
Thu 03:00:17 PM 40.8558 -92.8092 275° West 391 450 31,200 629 Climbing Chicago Center
Thu 03:01:19 PM 40.8656 -92.9767 274° West 390 449 31,900 387 Climbing Chicago Center
Thu 03:02:21 PM 40.8742 -93.1175 275° West 389 448 32,000 51 Climbing Chicago Center
Thu 03:03:16 PM 40.8828 -93.2625 275° West 391 450 32,000  Level Minneapolis Center
Thu 03:04:26 PM 40.8908 -93.4111 274° West 403 464 32,000  Level Chicago Center
Thu 03:05:20 PM 40.8992 -93.5589 274° West 403 464 32,000  Level Minneapolis Center
Thu 03:06:22 PM 40.9069 -93.7092 274° West 409 471 32,000  Level Minneapolis Center
Thu 03:07:24 PM 40.9144 -93.8606 274° West 412 474 32,000  Level Minneapolis Center
Thu 03:08:26 PM 40.9244 -94.0417 274° West 414 476 32,000  Level Minneapolis Center
Thu 03:09:27 PM 40.9317 -94.1939 274° West 415 478 32,000  Level Minneapolis Center
Thu 03:10:29 PM 40.9386 -94.3489 273° West 421 484 32,000  Level Minneapolis Center
Thu 03:11:31 PM 40.9461 -94.5044 274° West 423 487 32,000  Level Minneapolis Center
Thu 03:12:33 PM 40.9556 -94.6708 274° West 423 487 32,000  Level Minneapolis Center
Thu 03:13:35 PM 40.9622 -94.8300 273° West 428 493 32,000  Level Minneapolis Center
Thu 03:14:37 PM 40.9694 -94.9897 273° West 431 496 32,000  Level Minneapolis Center
Thu 03:15:38 PM 40.9761 -95.1489 273° West 431 496 32,000  Level Minneapolis Center
Thu 03:16:40 PM 40.9836 -95.3097 274° West 432 497 32,000  Level Minneapolis Center
Thu 03:17:42 PM 40.9906 -95.5017 273° West 432 497 32,000  Level Minneapolis Center
Thu 03:18:44 PM 40.9967 -95.6636 273° West 433 498 32,000  Level Minneapolis Center
Thu 03:19:46 PM 41.0025 -95.8244 273° West 434 499 32,000  Level Minneapolis Center
Thu 03:21:49 PM 41.0139 -96.1506 272° West 436 502 32,000  Level Minneapolis Center
Thu 03:22:51 PM 41.0183 -96.3133 272° West 437 503 32,000  Level Minneapolis Center
Thu 03:23:53 PM 41.0242 -96.4764 273° West 437 503 32,000  Level Minneapolis Center
Thu 03:24:55 PM 41.0281 -96.6386 272° West 437 503 32,000  Level Minneapolis Center
Thu 03:25:56 PM 41.0322 -96.8006 272° West 437 503 32,000  Level Minneapolis Center
Thu 03:26:58 PM 41.0361 -96.9628 272° West 437 503 32,000  Level Minneapolis Center
Thu 03:28:00 PM 41.0411 -97.1575 272° West 437 503 32,000  Level Minneapolis Center
Thu 03:29:02 PM 41.0439 -97.3194 271° West 438 504 32,000  Level Minneapolis Center
Thu 03:30:04 PM 41.0481 -97.4789 272° West 437 503 32,000 48 Level Minneapolis Center
Thu 03:31:06 PM 41.0519 -97.6381 272° West 437 503 32,100  Climbing Minneapolis Center
Thu 03:32:08 PM 41.0556 -97.7986 272° West 437 503 32,000 -49 Descending Minneapolis Center
Thu 03:33:09 PM 41.0583 -97.9592 271° West 437 503 32,000  Level Minneapolis Center
Thu 03:34:11 PM 41.0617 -98.1503 271° West 437 503 32,000  Level Minneapolis Center
Thu 03:35:13 PM 41.0642 -98.3092 271° West 436 502 32,000  Level Minneapolis Center
Thu 03:36:15 PM 41.0483 -98.4653 262° West 434 499 32,000  Level Minneapolis Center
Thu 03:37:17 PM 41.0294 -98.6206 261° West 431 496 32,000  Level Minneapolis Center
Thu 03:38:19 PM 41.0136 -98.7753 262° West 430 495 32,000  Level Minneapolis Center
Thu 03:39:21 PM 40.9953 -98.9331 261° West 430 495 32,000  Level Minneapolis Center
Thu 03:40:23 PM 40.9775 -99.0908 262° West 430 495 32,000  Level Minneapolis Center
Thu 03:41:25 PM 40.9581 -99.2617 261° West 432 497 32,000  Level Minneapolis Center
Thu 03:42:27 PM 40.9397 -99.4219 261° West 435 501 32,000  Level Minneapolis Center
Thu 03:43:29 PM 40.9214 -99.5811 261° West 436 502 32,000  Level Minneapolis Center
Thu 03:44:30 PM 40.8981 -99.7703 261° West 436 502 32,000  Level Minneapolis Center
Thu 03:45:32 PM 40.8786 -99.9258 261° West 434 499 32,000  Level Minneapolis Center
Thu 03:46:34 PM 40.8608 -100.0747 261° West 418 481 32,000  Level Minneapolis Center
Thu 03:47:36 PM 40.8433 -100.2194 261° West 406 467 32,000  Level Minneapolis Center
Thu 03:48:38 PM 40.8269 -100.3606 261° West 396 456 32,000  Level Minneapolis Center
Thu 03:49:40 PM 40.8075 -100.4986 260° West 389 448 32,000  Level Minneapolis Center
Thu 03:51:01 PM 40.7808 -100.6967 260° West 387 445 32,000  Level Denver Center
Thu 03:52:03 PM 40.7564 -100.8386 257° West 394 453 32,000  Level Denver Center
Thu 03:53:05 PM 40.7311 -100.9983 258° West 394 453 32,000  Level Denver Center
Thu 03:54:06 PM 40.7081 -101.1353 258° West 397 457 32,000  Level Denver Center
Thu 03:55:08 PM 40.6797 -101.2947 257° West 397 457 32,000  Level Denver Center
Thu 03:56:10 PM 40.6564 -101.4314 257° West 398 458 32,000  Level Denver Center
Thu 03:57:12 PM 40.6319 -101.5672 257° West 398 458 32,000  Level Denver Center
Thu 03:58:14 PM 40.6039 -101.7258 257° West 398 458 32,000  Level Denver Center
Thu 03:59:16 PM 40.5786 -101.8628 256° West 399 459 32,000  Level Denver Center
Thu 04:00:18 PM 40.5481 -102.0222 256° West 400 460 32,000  Level Denver Center
Thu 04:01:20 PM 40.5244 -102.1597 257° West 401 461 32,000  Level Denver Center
Thu 04:02:22 PM 40.4942 -102.3186 256° West 401 461 32,000  Level Denver Center
Thu 04:03:24 PM 40.4683 -102.4569 256° West 403 464 32,000  Level Denver Center
Thu 04:04:26 PM 40.4381 -102.6183 256° West 405 466 32,000  Level Denver Center
Thu 04:05:28 PM 40.4128 -102.7531 256° West 406 467 32,000  Level Denver Center
Thu 04:06:30 PM 40.3856 -102.8972 256° West 406 467 32,000  Level Denver Center
Thu 04:07:32 PM 40.3586 -103.0397 256° West 406 467 32,000 -774 Level Denver Center
Thu 04:08:34 PM 40.3250 -103.2111 256° West 406 467 30,400 -1,839 Descending Denver Center
Thu 04:09:36 PM 40.2994 -103.3425 256° West 378 435 28,200 -2,081 Descending Denver Center
Thu 04:10:38 PM 40.2758 -103.4678 256° West 360 414 26,100 -2,081 Descending Denver Center
Thu 04:11:40 PM 40.2500 -103.5958 255° West 362 417 23,900 -1,887 Descending Denver Center
Thu 04:12:42 PM 40.2261 -103.7219 256° West 360 414 22,200 -1,597 Descending Denver Center
Thu 04:13:44 PM 40.2006 -103.8494 255° West 337 388 20,600 -1,355 Descending Denver Center
Thu 04:14:46 PM 40.1631 -103.9319 239° Southwest 316 364 19,400 -1,403 Descending Denver Center
Thu 04:15:48 PM 40.1100 -104.0483 239° Southwest 301 346 17,700 -1,548 Descending Denver Center
Thu 04:16:50 PM 40.0639 -104.1489 239° Southwest 300 345 16,200 -1,403 Descending Denver Center
Thu 04:17:52 PM 40.0203 -104.2422 239° Southwest 302 348 14,800 -1,355 Descending Denver Center
Thu 04:18:54 PM 39.9747 -104.3400 239° Southwest 298 343 13,400 -823 Descending Denver Center
Thu 04:19:56 PM 39.9317 -104.4319 239° Southwest 297 342 13,100 -629 Descending Denver Center
Thu 04:20:58 PM 39.8747 -104.5028 224° Southwest 273 314 12,100 -1,008 Descending Denver Center
Thu 04:22:01 PM 39.8006 -104.5028 180° South 267 307 11,000 -1,056 Descending Denver Center
Thu 04:23:03 PM 39.7317 -104.5031 180° South 248 285 9,900 -1,548 Descending Denver Center
Thu 04:24:05 PM 39.6794 -104.5444 211° Southwest 233 268 7,800 -1,258 Descending Denver Center
Thu 04:25:07 PM 39.7117 -104.6111 302° West 226 260 7,300 -532 Descending Denver Center
Thu 04:26:09 PM 39.7611 -104.6586 324° Northwest 196 226 6,700 -629 Descending Denver Center
Thu 04:27:11 PM 39.8050 -104.6608 358° North 163 188 6,000 -634 Descending Denver Center
Thu 04:28:12 PM 39.8383 -104.6603 North 158 182 5,400 -590 Descending Denver Center

Login

Don't have an account? Register now (free) for customized features, flight alerts, and more!